ミラノ/マルペンサ の空港の天気 - METARとTAF

ミラノ・マルペンサ国際空港 ( LIMC / MXP ) - イタリア ミラノ
飛行場実況気象(Metar)
観測時間11/30 17:50 CET (11/30 16:50 UTC)
風向・風速北 4m/s
視程4000m
天気現象もや
全天の4割程度の雲 雲底高度 1220m
気温5℃
湿度93%
気圧1018hPa
METARLIMC 301650Z 36007KT 4000 BR SCT040 05/04 Q1018 NOSIG
過去の天気等 Google飛行場航空写真 Wunderground天気予報

過去48時間のMETAR

飛行場予報(TAF)
発表時間: 11/30 12:00 CET (11/30 11:00 UTC)
予報対象時間: 30日13時 CET ~ 1日19時 CET
風向・風速不定 3m/s
視程6000m
全天の8割程度の雲 雲底高度 610m
30日23時 CET ~ 1日2時 CET に徐々に
視程300m
天気現象
全天を覆う雲 雲底高度 60m
1日3時 CET ~ 1日8時 CET に一時的に
視程200m
天気現象氷霧
1日10時 CET ~ 1日13時 CET に徐々に
視程5000m
天気現象もや
少しの雲 雲底高度 910m
TAF LIMC 301100Z 3012/0118 VRB05KT 6000 BKN020
BECMG 3022/0101 0300 FG OVC002
TEMPO 0102/0107 0200 FZFG
BECMG 0109/0112 5000 BR FEW030